Lake Grace, Australia
Current Conditions -  °F | °C
As of 7:00 PM on Saturday 25 Oct 2014 (Local Time) from YABA Reporting Station
Clear Clear  
Wind Chill: 61°   Ceiling: Unl
Heat Index: 61°   Visibility: 6mi
Dew Point: 48°   Wind: 15mph
Humidity: 63%   Direction: 270°W
Pressure: 29.97"   Gusts: NA
Location:  33.1°S, 118.47°E
Report Text: YABA 251100Z AUTO 27013KT 9999 // NCD 16/09 Q1015
Loading
Personal Weather Stations






























Interactive Weather Map
Tropical Storm Tracking
New forecast layout! Learn more

10-Day Weather Forecast

Advertisements
Track Severe Weather on mobile